Time;durP1;ratioP1;P1;durP2;ratioP2;P2;SDS_P1;SDS_P2;PMS_P1;PMS_P2;Temp;Humidity;BMP_temperature;BMP_pressure;BME280_temperature;BME280_humidity;BME280_pressure;Samples;Min_cycle;Max_cycle;Signal;HPM_P1;HPM_P2
2023/07/29 00:01:11;;;;;;;1999.90;999.90;;;;;;;25.67;55.56;100792.44;5087791;28;20032;-70
2023/07/29 00:03:37;;;;;;;1999.90;999.90;;;;;;;26.75;52.79;100789.63;5072219;28;20073;-70
2023/07/29 00:06:02;;;;;;;1999.90;999.90;;;;;;;26.37;53.57;100785.41;5086579;28;20031;-70
2023/07/29 00:08:27;;;;;;;1999.90;999.90;;;;;;;25.60;56.67;100780.50;5088258;28;20024;-70
2023/07/29 00:10:53;;;;;;;1999.90;999.90;;;;;;;26.61;52.73;100787.13;5087316;28;20106;-70
2023/07/29 00:13:18;;;;;;;1999.90;999.90;;;;;;;25.80;55.29;100781.66;5071031;28;20017;-70
2023/07/29 00:15:44;;;;;;;1999.90;999.90;;;;;;;26.57;53.58;100776.66;5077468;28;20044;-69
2023/07/29 00:18:09;;;;;;;1999.90;999.90;;;;;;;25.73;57.27;100778.59;5069184;28;20376;-70
2023/07/29 00:20:34;;;;;;;1999.90;999.90;;;;;;;26.11;55.30;100774.03;5067058;28;20470;-69
2023/07/29 00:23:01;;;;;;;1999.90;999.90;;;;;;;26.64;53.44;100770.81;5069169;28;20128;-70
2023/07/29 00:25:26;;;;;;;1999.90;999.90;;;;;;;25.77;54.70;100774.72;5069355;28;20458;-69
2023/07/29 00:27:54;;;;;;;1999.90;999.90;;;;;;;26.26;54.09;100766.66;5081233;28;20032;-70
2023/07/29 00:30:20;;;;;;;1999.90;999.90;;;;;;;25.54;56.97;100766.59;5092418;28;20020;-70
2023/07/29 00:32:45;;;;;;;1999.90;999.90;;;;;;;25.73;56.08;100765.22;5085577;28;20031;-70
2023/07/29 00:35:11;;;;;;;1999.90;999.90;;;;;;;24.88;59.84;100785.59;5078881;28;20037;-70
2023/07/29 00:37:37;;;;;;;1999.90;999.90;;;;;;;26.23;53.84;100779.28;5077927;28;20024;-70
2023/07/29 00:40:09;;;;;;;1999.90;999.90;;;;;;;24.30;61.40;100781.63;5090871;28;20028;-70
2023/07/29 00:42:35;;;;;;;1999.90;999.90;;;;;;;24.62;61.20;100778.56;5074496;28;20088;-69
2023/07/29 00:45:00;;;;;;;1999.90;999.90;;;;;;;24.41;61.80;100776.38;5076029;28;20477;-70
2023/07/29 00:47:26;;;;;;;1999.90;999.90;;;;;;;25.34;58.29;100769.91;5075094;28;20016;-70
2023/07/29 00:49:51;;;;;;;1999.90;999.90;;;;;;;24.59;63.25;100771.56;5092463;28;20059;-70
2023/07/29 00:52:16;;;;;;;1999.90;999.90;;;;;;;24.60;62.16;100775.97;5091124;28;20035;-70
2023/07/29 00:54:42;;;;;;;1999.90;999.90;;;;;;;24.55;63.66;100762.06;5084378;28;20144;-70
2023/07/29 00:57:09;;;;;;;1999.90;999.90;;;;;;;25.40;60.68;100764.09;5072193;28;20045;-69
2023/07/29 00:59:36;;;;;;;1999.90;999.90;;;;;;;24.17;65.67;100774.44;5087414;28;20039;-68
2023/07/29 01:02:02;;;;;;;1999.90;999.90;;;;;;;24.79;62.34;100764.88;5074472;28;20040;-70
2023/07/29 01:04:27;;;;;;;1999.90;999.90;;;;;;;24.19;65.80;100772.53;5091518;28;20051;-70
2023/07/29 01:07:11;;;;;;;1999.90;999.90;;;;;;;25.28;61.26;100748.91;5078969;28;20376;-69
2023/07/29 01:10:00;;;;;;;1999.90;999.90;;;;;;;24.65;61.58;100757.00;5084631;28;20434;-70
2023/07/29 01:12:53;;;;;;;1999.90;999.90;;;;;;;25.05;61.31;100759.47;5085006;28;20037;-70
2023/07/29 01:15:30;;;;;;;1999.90;999.90;;;;;;;24.74;62.78;100761.66;5070230;28;20036;-70
2023/07/29 01:18:02;;;;;;;1999.90;999.90;;;;;;;25.43;57.91;100752.31;5081847;28;20044;-70
2023/07/29 01:20:40;;;;;;;1999.90;999.90;;;;;;;25.18;58.06;100744.25;5091324;28;20031;-70
2023/07/29 01:23:06;;;;;;;1999.90;999.90;;;;;;;24.28;61.84;100749.69;5075330;28;20029;-70
2023/07/29 01:25:31;;;;;;;1999.90;999.90;;;;;;;24.71;59.15;100745.84;5072153;28;20055;-70
2023/07/29 01:27:57;;;;;;;1999.90;999.90;;;;;;;23.96;62.22;100754.53;5088428;28;20115;-70
2023/07/29 01:30:28;;;;;;;1999.90;999.90;;;;;;;24.44;59.88;100752.16;5083117;28;20024;-70
2023/07/29 01:33:06;;;;;;;1999.90;999.90;;;;;;;25.37;56.34;100742.91;5091545;28;20146;-70
2023/07/29 01:35:36;;;;;;;1999.90;999.90;;;;;;;24.38;59.86;100740.06;5090989;28;20078;-70
2023/07/29 01:38:13;;;;;;;1999.90;999.90;;;;;;;24.64;58.20;100749.94;5088695;28;20558;-70
2023/07/29 01:40:40;;;;;;;1999.90;999.90;;;;;;;24.03;61.26;100750.53;5075947;28;20027;-70
2023/07/29 01:43:08;;;;;;;1999.90;999.90;;;;;;;24.94;57.38;100740.69;5084912;28;20446;-69
2023/07/29 01:45:38;;;;;;;1999.90;999.90;;;;;;;24.98;58.16;100742.19;5091772;28;20440;-70
2023/07/29 01:48:07;;;;;;;1999.90;999.90;;;;;;;24.86;55.38;100734.06;5091686;28;20435;-70
2023/07/29 01:50:34;;;;;;;1999.90;999.90;;;;;;;25.27;55.81;100728.50;5087704;28;20020;-70
2023/07/29 01:53:00;;;;;;;1999.90;999.90;;;;;;;25.20;55.15;100728.09;5070253;28;20024;-70
2023/07/29 01:55:26;;;;;;;1999.90;999.90;;;;;;;25.19;55.24;100727.22;5072489;28;20577;-70
2023/07/29 01:57:51;;;;;;;1999.90;999.90;;;;;;;25.55;54.15;100730.00;5070794;28;20153;-70
2023/07/29 02:00:18;;;;;;;1999.90;999.90;;;;;;;25.49;53.73;100730.47;5046495;28;20025;-70
2023/07/29 02:02:43;;;;;;;1999.90;999.90;;;;;;;25.43;53.67;100725.56;5052749;28;20024;-70
2023/07/29 02:05:09;;;;;;;1999.90;999.90;;;;;;;24.96;55.00;100720.03;5070402;28;20035;-70
2023/07/29 02:07:38;;;;;;;1999.90;999.90;;;;;;;24.46;58.15;100730.69;5051172;28;20051;-70
2023/07/29 02:10:03;;;;;;;1999.90;999.90;;;;;;;24.35;57.59;100734.09;5038798;28;20035;-70
2023/07/29 02:12:29;;;;;;;1999.90;999.90;;;;;;;24.65;57.17;100730.28;5032391;28;20455;-70
2023/07/29 02:14:54;;;;;;;1999.90;999.90;;;;;;;24.30;58.24;100730.88;5032688;28;20032;-71
2023/07/29 02:17:20;;;;;;;1999.90;999.90;;;;;;;24.52;57.07;100731.09;5051194;28;20047;-70
2023/07/29 02:19:46;;;;;;;1999.90;999.90;;;;;;;24.97;55.59;100713.72;5035480;28;20028;-70
2023/07/29 02:22:17;;;;;;;1999.90;999.90;;;;;;;24.79;55.96;100713.25;5035080;28;20062;-70
2023/07/29 02:24:42;;;;;;;1999.90;999.90;;;;;;;24.39;56.69;100720.41;5050335;28;20029;-71
2023/07/29 02:27:08;;;;;;;1999.90;999.90;;;;;;;24.31;56.44;100713.91;5049452;28;20032;-70
2023/07/29 02:29:36;;;;;;;1999.90;999.90;;;;;;;23.92;59.39;100718.34;5070683;28;20017;-70
2023/07/29 02:32:03;;;;;;;1999.90;999.90;;;;;;;24.98;54.62;100699.41;5038217;28;20021;-70
2023/07/29 02:34:28;;;;;;;1999.90;999.90;;;;;;;25.14;53.13;100704.47;5049663;28;20055;-70
2023/07/29 02:36:54;;;;;;;1999.90;999.90;;;;;;;23.66;58.18;100704.94;5050164;28;20025;-70
2023/07/29 02:39:19;;;;;;;1999.90;999.90;;;;;;;23.98;58.15;100704.59;5032706;28;20060;-69
2023/07/29 02:41:45;;;;;;;1999.90;999.90;;;;;;;24.69;55.29;100689.00;5037973;28;20028;-70
2023/07/29 02:44:10;;;;;;;1999.90;999.90;;;;;;;24.64;55.50;100693.81;5052623;28;20091;-70
2023/07/29 02:46:36;;;;;;;1999.90;999.90;;;;;;;24.37;55.92;100674.28;5043748;28;20039;-70
2023/07/29 02:49:03;;;;;;;1999.90;999.90;;;;;;;24.95;54.63;100678.22;5050049;28;20112;-70
2023/07/29 02:51:28;;;;;;;1999.90;999.90;;;;;;;24.53;54.05;100679.34;5054125;28;20023;-70
2023/07/29 02:53:54;;;;;;;1999.90;999.90;;;;;;;23.96;56.01;100682.47;5042223;28;20419;-70
2023/07/29 02:56:19;;;;;;;1999.90;999.90;;;;;;;23.79;57.34;100679.13;5049675;28;20048;-70
2023/07/29 02:58:45;;;;;;;1999.90;999.90;;;;;;;23.91;57.14;100692.66;5087745;28;20017;-70
2023/07/29 03:01:10;;;;;;;1999.90;999.90;;;;;;;23.55;58.50;100689.66;5087070;28;20055;-70
2023/07/29 03:03:36;;;;;;;1999.90;999.90;;;;;;;24.70;55.10;100696.91;5089111;28;20027;-70
2023/07/29 03:06:07;;;;;;;1999.90;999.90;;;;;;;24.61;55.89;100702.03;5089094;28;20043;-70
2023/07/29 03:08:35;;;;;;;1999.90;999.90;;;;;;;24.13;56.40;100705.38;5089312;28;20509;-71
2023/07/29 03:11:09;;;;;;;1999.90;999.90;;;;;;;24.67;56.14;100697.09;5089403;28;20511;-70
2023/07/29 03:13:35;;;;;;;1999.90;999.90;;;;;;;24.38;57.09;100686.63;5069922;28;20105;-68
2023/07/29 03:16:16;;;;;;;1999.90;999.90;;;;;;;24.70;55.70;100691.56;5069247;28;20504;-69
2023/07/29 03:18:43;;;;;;;1999.90;999.90;;;;;;;23.42;60.26;100697.59;5071282;28;20077;-70
2023/07/29 03:21:09;;;;;;;1999.90;999.90;;;;;;;23.28;60.49;100700.34;5080385;28;20111;-70
2023/07/29 03:23:35;;;;;;;1999.90;999.90;;;;;;;24.05;58.23;100706.72;5069460;28;20107;-70
2023/07/29 03:26:04;;;;;;;1999.90;999.90;;;;;;;23.08;61.92;100705.13;5088061;28;20047;-70
2023/07/29 03:28:32;;;;;;;1999.90;999.90;;;;;;;24.15;57.86;100704.31;5074270;28;20392;-70
2023/07/29 03:30:58;;;;;;;1999.90;999.90;;;;;;;24.72;54.97;100696.78;5068683;28;20491;-70
2023/07/29 03:33:24;;;;;;;1999.90;999.90;;;;;;;24.05;59.03;100712.06;5069796;28;20028;-70
2023/07/29 03:35:50;;;;;;;1999.90;999.90;;;;;;;23.73;58.13;100706.25;5066971;28;20068;-70
2023/07/29 03:38:15;;;;;;;1999.90;999.90;;;;;;;24.50;54.97;100703.63;5085253;28;20550;-70
2023/07/29 03:40:41;;;;;;;1999.90;999.90;;;;;;;24.37;56.80;100708.13;5087720;28;20541;-70
2023/07/29 03:43:07;;;;;;;1999.90;999.90;;;;;;;23.85;58.03;100705.41;5087900;28;20024;-71
2023/07/29 03:45:37;;;;;;;1999.90;999.90;;;;;;;22.59;62.40;100709.09;5086293;28;20058;-71
2023/07/29 03:48:03;;;;;;;1999.90;999.90;;;;;;;23.24;61.31;100709.50;5081355;28;20032;-70
2023/07/29 03:50:29;;;;;;;1999.90;999.90;;;;;;;23.45;60.72;100713.44;5086976;28;20115;-70
2023/07/29 03:52:55;;;;;;;1999.90;999.90;;;;;;;24.03;57.43;100710.47;5088084;28;20036;-70
2023/07/29 03:55:20;;;;;;;1999.90;999.90;;;;;;;23.75;60.10;100706.13;5083405;28;20025;-70
2023/07/29 03:57:46;;;;;;;1999.90;999.90;;;;;;;23.43;60.02;100698.47;5066507;28;20127;-70
2023/07/29 04:00:12;;;;;;;1999.90;999.90;;;;;;;24.38;56.59;100704.50;5068935;28;20028;-70
2023/07/29 04:02:38;;;;;;;1999.90;999.90;;;;;;;23.80;59.13;100709.34;5071906;28;20029;-69
2023/07/29 04:05:05;;;;;;;1999.90;999.90;;;;;;;24.08;58.66;100711.00;5072577;28;20085;-70
2023/07/29 04:07:30;;;;;;;1999.90;999.90;;;;;;;24.32;58.54;100712.94;5075174;28;20031;-70
2023/07/29 04:09:56;;;;;;;1999.90;999.90;;;;;;;24.14;57.44;100707.91;5090449;28;20479;-70
2023/07/29 04:12:22;;;;;;;1999.90;999.90;;;;;;;24.14;58.04;100705.25;5071105;28;20384;-71
2023/07/29 04:14:48;;;;;;;1999.90;999.90;;;;;;;24.37;56.25;100703.66;5075956;28;20162;-70
2023/07/29 04:17:14;;;;;;;1999.90;999.90;;;;;;;25.21;55.03;100695.88;5081886;28;20543;-70
2023/07/29 04:19:39;;;;;;;1999.90;999.90;;;;;;;24.55;56.29;100693.47;5077356;28;20163;-70
2023/07/29 04:22:05;;;;;;;1999.90;999.90;;;;;;;23.80;60.39;100712.03;5071721;28;20391;-71
2023/07/29 04:24:31;;;;;;;1999.90;999.90;;;;;;;24.06;59.59;100702.25;5077927;28;20491;-70
2023/07/29 04:26:56;;;;;;;1999.90;999.90;;;;;;;24.51;58.02;100702.66;5090762;28;20488;-70
2023/07/29 04:29:22;;;;;;;1999.90;999.90;;;;;;;24.53;58.67;100697.22;5077929;28;20050;-70
2023/07/29 04:31:49;;;;;;;1999.90;999.90;;;;;;;24.79;55.73;100700.72;5080968;28;20084;-70
2023/07/29 04:34:14;;;;;;;1999.90;999.90;;;;;;;23.84;58.95;100709.03;5090866;28;20147;-70
2023/07/29 04:36:40;;;;;;;1999.90;999.90;;;;;;;23.33;62.87;100714.22;5092621;28;20216;-70
2023/07/29 04:39:05;;;;;;;1999.90;999.90;;;;;;;24.42;57.99;100713.16;5090543;28;20073;-70
2023/07/29 04:41:31;;;;;;;1999.90;999.90;;;;;;;23.72;61.37;100709.84;5086712;28;20038;-70
2023/07/29 04:43:56;;;;;;;1999.90;999.90;;;;;;;24.20;57.53;100710.16;5090952;28;20020;-71
2023/07/29 04:46:22;;;;;;;1999.90;999.90;;;;;;;24.58;56.72;100713.78;5092196;28;20036;-70
2023/07/29 04:48:47;;;;;;;1999.90;999.90;;;;;;;25.07;55.34;100717.44;5090569;28;20032;-70
2023/07/29 04:51:13;;;;;;;1999.90;999.90;;;;;;;24.42;57.97;100721.16;5082650;28;20035;-70
2023/07/29 04:53:38;;;;;;;1999.90;999.90;;;;;;;24.58;58.58;100712.91;5088414;28;20028;-70
2023/07/29 04:56:04;;;;;;;1999.90;999.90;;;;;;;24.03;60.16;100721.16;5089824;28;20079;-70
2023/07/29 04:58:30;;;;;;;1999.90;999.90;;;;;;;24.56;58.09;100716.56;5050098;28;20174;-70
2023/07/29 05:00:56;;;;;;;1999.90;999.90;;;;;;;24.44;58.89;100727.25;5051416;28;20112;-71
2023/07/29 05:03:21;;;;;;;1999.90;999.90;;;;;;;24.45;58.92;100735.16;5071570;28;20032;-70
2023/07/29 05:05:47;;;;;;;1999.90;999.90;;;;;;;24.50;57.81;100722.31;5071684;28;20082;-70
2023/07/29 05:08:12;;;;;;;1999.90;999.90;;;;;;;24.77;58.39;100716.03;5068146;28;20032;-70
2023/07/29 05:10:37;;;;;;;1999.90;999.90;;;;;;;24.47;60.81;100717.22;5042979;28;20020;-70
2023/07/29 05:13:03;;;;;;;1999.90;999.90;;;;;;;24.70;58.53;100704.06;5037981;28;20037;-70
2023/07/29 05:15:28;;;;;;;1999.90;999.90;;;;;;;24.46;57.77;100714.66;5046652;28;20020;-68
2023/07/29 05:17:54;;;;;;;1999.90;999.90;;;;;;;25.14;57.51;100707.13;5041534;28;20033;-70
2023/07/29 05:20:19;;;;;;;1999.90;999.90;;;;;;;24.27;59.60;100712.41;5065400;28;20111;-70
2023/07/29 05:22:44;;;;;;;1999.90;999.90;;;;;;;24.05;59.85;100711.22;5037821;28;20385;-70
2023/07/29 05:25:10;;;;;;;1999.90;999.90;;;;;;;24.74;58.64;100708.22;5065981;28;20032;-70
2023/07/29 05:27:35;;;;;;;1999.90;999.90;;;;;;;25.10;56.34;100701.19;5071275;28;20130;-69
2023/07/29 05:30:01;;;;;;;1999.90;999.90;;;;;;;24.68;58.15;100697.97;5041836;28;20032;-70
2023/07/29 05:32:26;;;;;;;1999.90;999.90;;;;;;;23.86;61.20;100704.44;5065179;28;20104;-70
2023/07/29 05:34:52;;;;;;;1999.90;999.90;;;;;;;25.77;55.30;100691.75;5052552;28;20440;-70
2023/07/29 05:37:17;;;;;;;1999.90;999.90;;;;;;;25.28;55.90;100692.75;5033058;28;20032;-70
2023/07/29 05:39:42;;;;;;;1999.90;999.90;;;;;;;25.78;54.77;100688.09;5052812;28;20029;-70
2023/07/29 05:42:08;;;;;;;1999.90;999.90;;;;;;;24.67;59.25;100701.59;5061080;28;20029;-70
2023/07/29 05:44:37;;;;;;;1999.90;999.90;;;;;;;25.56;56.71;100702.28;5067542;28;20028;-70
2023/07/29 05:47:03;;;;;;;1999.90;999.90;;;;;;;24.97;57.66;100695.84;5053596;28;20421;-71
2023/07/29 05:49:28;;;;;;;1999.90;999.90;;;;;;;25.42;55.59;100699.75;5052024;28;20063;-71
2023/07/29 05:51:54;;;;;;;1999.90;999.90;;;;;;;25.34;56.50;100695.00;5044596;28;20473;-70
2023/07/29 05:54:20;;;;;;;1999.90;999.90;;;;;;;25.50;54.78;100706.25;5065287;28;20051;-71
2023/07/29 05:56:45;;;;;;;1999.90;999.90;;;;;;;24.30;62.08;100725.53;5066481;28;20507;-70
2023/07/29 05:59:10;;;;;;;1999.90;999.90;;;;;;;24.74;60.60;100718.91;5090091;28;20028;-70
2023/07/29 06:01:36;;;;;;;1999.90;999.90;;;;;;;24.21;61.33;100721.72;5071469;28;20034;-71
2023/07/29 06:04:01;;;;;;;1999.90;999.90;;;;;;;25.45;57.27;100721.81;5069901;28;20376;-70
2023/07/29 06:06:27;;;;;;;1999.90;999.90;;;;;;;26.21;54.82;100722.31;5076485;28;20136;-70
2023/07/29 06:08:52;;;;;;;1999.90;999.90;;;;;;;24.61;58.29;100723.41;5069399;28;20432;-70
2023/07/29 06:11:18;;;;;;;1999.90;999.90;;;;;;;25.46;57.84;100718.16;5074167;28;20009;-70
2023/07/29 06:13:43;;;;;;;1999.90;999.90;;;;;;;24.19;62.92;100724.50;5086869;28;20488;-70
2023/07/29 06:16:09;;;;;;;1999.90;999.90;;;;;;;25.18;59.78;100720.19;5080041;28;20039;-70
2023/07/29 06:18:37;;;;;;;1999.90;999.90;;;;;;;25.85;55.26;100721.47;5069632;28;20066;-70
2023/07/29 06:21:07;;;;;;;1999.90;999.90;;;;;;;24.38;61.62;100723.19;5070769;28;20098;-70
2023/07/29 06:23:32;;;;;;;1999.90;999.90;;;;;;;25.94;56.22;100714.56;5087088;28;20043;-70
2023/07/29 06:25:58;;;;;;;1999.90;999.90;;;;;;;26.07;55.50;100719.84;5083650;28;20155;-71
2023/07/29 06:28:24;;;;;;;1999.90;999.90;;;;;;;25.72;56.29;100721.53;5091046;28;20031;-71
2023/07/29 06:30:49;;;;;;;1999.90;999.90;;;;;;;26.13;55.12;100713.16;5089194;28;20055;-70
2023/07/29 06:33:15;;;;;;;1999.90;999.90;;;;;;;26.84;53.36;100724.53;5073765;28;20028;-71
2023/07/29 06:35:41;;;;;;;1999.90;999.90;;;;;;;27.46;51.41;100724.91;5070083;28;20036;-70
2023/07/29 06:38:06;;;;;;;1999.90;999.90;;;;;;;26.08;55.71;100726.91;5069182;28;20058;-71
2023/07/29 06:40:32;;;;;;;1999.90;999.90;;;;;;;26.88;52.50;100728.66;5069958;28;20033;-70
2023/07/29 06:42:57;;;;;;;1999.90;999.90;;;;;;;26.48;54.79;100723.78;5084018;28;20024;-71
2023/07/29 06:45:23;;;;;;;1999.90;999.90;;;;;;;27.19;52.35;100718.13;5086216;28;20474;-71
2023/07/29 06:47:48;;;;;;;1999.90;999.90;;;;;;;28.92;47.81;100719.56;5089095;28;20382;-71
2023/07/29 06:50:14;;;;;;;1999.90;999.90;;;;;;;26.59;51.79;100726.47;5079315;28;20032;-70
2023/07/29 06:52:40;;;;;;;1999.90;999.90;;;;;;;27.54;50.50;100722.41;5086759;28;20438;-70
2023/07/29 06:55:06;;;;;;;1999.90;999.90;;;;;;;27.22;52.62;100728.59;5079954;28;20492;-71
2023/07/29 06:57:32;;;;;;;1999.90;999.90;;;;;;;28.14;50.25;100721.91;5068900;28;20048;-70
2023/07/29 06:59:57;;;;;;;1999.90;999.90;;;;;;;29.47;45.75;100723.66;5074768;28;20035;-71
2023/07/29 07:02:23;;;;;;;1999.90;999.90;;;;;;;29.73;45.23;100723.06;5086836;28;20035;-70
2023/07/29 07:04:48;;;;;;;1999.90;999.90;;;;;;;30.26;43.58;100714.47;5070583;28;20479;-71
2023/07/29 07:07:15;;;;;;;1999.90;999.90;;;;;;;27.83;48.37;100721.78;5067822;28;20029;-71
2023/07/29 07:09:40;;;;;;;1999.90;999.90;;;;;;;27.81;49.58;100721.09;5071417;28;20050;-70
2023/07/29 07:12:06;;;;;;;1999.90;999.90;;;;;;;26.74;52.40;100724.41;5070244;28;20032;-70
2023/07/29 07:14:32;;;;;;;1999.90;999.90;;;;;;;28.39;49.78;100717.94;5073025;28;20028;-70
2023/07/29 07:16:57;;;;;;;1999.90;999.90;;;;;;;28.50;47.46;100725.03;5070017;28;20036;-71
2023/07/29 07:19:23;;;;;;;1999.90;999.90;;;;;;;28.09;48.00;100726.81;5071327;28;20021;-71
2023/07/29 07:21:48;;;;;;;1999.90;999.90;;;;;;;28.35;47.73;100721.03;5081854;28;20028;-71
2023/07/29 07:24:14;;;;;;;1999.90;999.90;;;;;;;27.92;48.62;100723.72;5068850;28;20427;-70
2023/07/29 07:26:39;;;;;;;1999.90;999.90;;;;;;;27.61;49.26;100724.59;5084288;28;20020;-70
2023/07/29 07:29:05;;;;;;;1999.90;999.90;;;;;;;26.62;51.82;100735.25;5082854;28;20321;-71
2023/07/29 07:31:36;;;;;;;1999.90;999.90;;;;;;;27.40;49.45;100730.78;5083302;28;20027;-70
2023/07/29 07:34:02;;;;;;;1999.90;999.90;;;;;;;27.20;50.16;100735.94;5076551;28;20039;-70
2023/07/29 07:36:28;;;;;;;1999.90;999.90;;;;;;;26.99;51.39;100743.88;5073385;28;20033;-71
2023/07/29 07:38:54;;;;;;;1999.90;999.90;;;;;;;26.76;52.14;100737.69;5069170;28;20055;-71
2023/07/29 07:41:19;;;;;;;1999.90;999.90;;;;;;;27.29;51.04;100737.00;5068388;28;20468;-70
2023/07/29 07:43:45;;;;;;;1999.90;999.90;;;;;;;27.54;50.86;100738.53;5068294;28;20024;-70
2023/07/29 07:46:10;;;;;;;1999.90;999.90;;;;;;;27.29;50.64;100744.22;5069752;28;20100;-70
2023/07/29 07:48:36;;;;;;;1999.90;999.90;;;;;;;26.77;51.97;100744.78;5071721;28;20476;-70
2023/07/29 07:51:10;;;;;;;1999.90;999.90;;;;;;;27.21;51.01;100734.94;5087968;28;20023;-71
2023/07/29 07:53:36;;;;;;;1999.90;999.90;;;;;;;25.39;56.62;100752.53;5088084;28;20034;-70
2023/07/29 07:56:02;;;;;;;1999.90;999.90;;;;;;;26.49;53.38;100752.31;5083506;28;20147;-71
2023/07/29 07:58:27;;;;;;;1999.90;999.90;;;;;;;26.15;53.70;100752.25;5032902;28;20029;-71
2023/07/29 08:01:01;;;;;;;1999.90;999.90;;;;;;;26.28;54.19;100753.97;5031530;28;20536;-71
2023/07/29 08:03:26;;;;;;;1999.90;999.90;;;;;;;27.66;50.05;100751.94;5050876;28;20047;-71
2023/07/29 08:05:52;;;;;;;1999.90;999.90;;;;;;;26.86;51.76;100749.41;5046957;28;20032;-70
2023/07/29 08:08:17;;;;;;;1999.90;999.90;;;;;;;27.48;49.28;100749.78;5042818;28;20032;-71
2023/07/29 08:10:42;;;;;;;1999.90;999.90;;;;;;;28.44;46.63;100755.16;5068006;28;20048;-71
2023/07/29 08:13:08;;;;;;;1999.90;999.90;;;;;;;28.42;47.85;100763.34;5051358;28;20087;-71
2023/07/29 08:15:36;;;;;;;1999.90;999.90;;;;;;;29.45;45.82;100753.38;5051177;28;20020;-70
2023/07/29 08:18:02;;;;;;;1999.90;999.90;;;;;;;28.91;45.95;100752.81;5067091;28;20039;-71
2023/07/29 08:20:27;;;;;;;1999.90;999.90;;;;;;;29.35;45.33;100762.47;5069213;28;20025;-70
2023/07/29 08:22:53;;;;;;;1999.90;999.90;;;;;;;28.94;47.12;100760.63;5068080;28;20298;-71
2023/07/29 08:25:18;;;;;;;1999.90;999.90;;;;;;;29.08;46.05;100759.38;5050611;28;20032;-71
2023/07/29 08:27:44;;;;;;;1999.90;999.90;;;;;;;27.57;49.37;100765.13;5059121;28;20353;-71
2023/07/29 08:30:09;;;;;;;1999.90;999.90;;;;;;;26.88;50.18;100763.53;5032809;28;20396;-71
2023/07/29 08:32:35;;;;;;;1999.90;999.90;;;;;;;27.73;48.84;100764.69;5030193;28;20036;-70
2023/07/29 08:35:00;;;;;;;1999.90;999.90;;;;;;;28.28;47.75;100758.31;5031130;28;20025;-71
2023/07/29 08:37:27;;;;;;;1999.90;999.90;;;;;;;28.04;47.82;100756.78;5051811;28;20028;-70
2023/07/29 08:39:53;;;;;;;1999.90;999.90;;;;;;;27.09;51.17;100762.75;5047290;28;20115;-70
2023/07/29 08:42:20;;;;;;;1999.90;999.90;;;;;;;27.33;49.93;100762.59;5064859;28;20024;-71
2023/07/29 08:44:49;;;;;;;1999.90;999.90;;;;;;;26.92;52.44;100770.34;5068932;28;20044;-70
2023/07/29 08:47:16;;;;;;;1999.90;999.90;;;;;;;27.23;52.08;100767.00;5063631;28;20519;-70
2023/07/29 08:49:42;;;;;;;1999.90;999.90;;;;;;;26.10;56.35;100786.56;5055268;28;20051;-71
2023/07/29 08:52:09;;;;;;;1999.90;999.90;;;;;;;25.80;59.33;100787.03;5054738;28;20021;-71
2023/07/29 08:54:35;;;;;;;1999.90;999.90;;;;;;;26.23;58.33;100768.56;5071835;28;20081;-70
2023/07/29 08:57:01;;;;;;;1999.90;999.90;;;;;;;27.40;56.24;100773.72;5072374;28;20447;-71
2023/07/29 08:59:29;;;;;;;1999.90;999.90;;;;;;;27.21;55.58;100774.34;5092451;28;20081;-71
2023/07/29 09:01:57;;;;;;;1999.90;999.90;;;;;;;26.78;56.53;100783.16;5091577;28;20032;-71
2023/07/29 09:04:23;;;;;;;1999.90;999.90;;;;;;;27.19;55.06;100771.78;5091855;28;20070;-71
2023/07/29 09:06:51;;;;;;;1999.90;999.90;;;;;;;27.22;54.31;100770.69;5074999;28;20055;-71
2023/07/29 09:09:16;;;;;;;1999.90;999.90;;;;;;;26.45;56.39;100774.94;5071268;28;20559;-71
2023/07/29 09:11:43;;;;;;;1999.90;999.90;;;;;;;27.54;54.57;100775.25;5073155;28;20028;-71
2023/07/29 09:14:09;;;;;;;1999.90;999.90;;;;;;;26.86;55.78;100776.22;5081906;28;20441;-71
2023/07/29 09:16:36;;;;;;;1999.90;999.90;;;;;;;27.31;54.95;100775.28;5081456;28;20046;-70
2023/07/29 09:19:03;;;;;;;1999.90;999.90;;;;;;;27.54;54.32;100762.69;5090321;28;20047;-71
2023/07/29 09:21:28;;;;;;;1999.90;999.90;;;;;;;27.37;53.40;100768.63;5078106;28;20031;-71
2023/07/29 09:23:55;;;;;;;1999.90;999.90;;;;;;;26.08;54.71;100773.28;5077642;28;20036;-71
2023/07/29 09:26:26;;;;;;;1999.90;999.90;;;;;;;26.48;58.04;100782.75;5080929;28;20424;-71
2023/07/29 09:28:53;;;;;;;1999.90;999.90;;;;;;;26.91;55.38;100778.53;5075145;28;20460;-71
2023/07/29 09:31:21;;;;;;;1999.90;999.90;;;;;;;27.33;53.29;100778.69;5090404;28;20106;-71
2023/07/29 09:33:46;;;;;;;1999.90;999.90;;;;;;;27.02;53.88;100769.63;5080681;28;20137;-70
2023/07/29 09:36:12;;;;;;;1999.90;999.90;;;;;;;27.51;52.23;100776.38;5079878;28;20032;-71
2023/07/29 09:38:38;;;;;;;1999.90;999.90;;;;;;;26.83;54.74;100779.16;5072367;28;20074;-71
2023/07/29 09:41:04;;;;;;;1999.90;999.90;;;;;;;26.14;55.42;100774.63;5070712;28;20021;-71
2023/07/29 09:43:31;;;;;;;1999.90;999.90;;;;;;;26.92;55.03;100775.72;5080206;28;20501;-71
2023/07/29 09:46:01;;;;;;;1999.90;999.90;;;;;;;27.08;53.01;100774.50;5078431;28;20077;-70
2023/07/29 09:48:28;;;;;;;1999.90;999.90;;;;;;;27.40;52.06;100776.41;5077219;28;20388;-71
2023/07/29 09:50:54;;;;;;;1999.90;999.90;;;;;;;26.19;55.54;100783.19;5085040;28;20291;-73
2023/07/29 09:53:20;;;;;;;1999.90;999.90;;;;;;;26.22;55.73;100785.59;5097522;28;20123;-73
2023/07/29 09:55:48;;;;;;;1999.90;999.90;;;;;;;25.58;58.83;100777.91;5083356;28;20124;-73
2023/07/29 09:58:14;;;;;;;1999.90;999.90;;;;;;;26.28;56.04;100781.59;5032899;28;20033;-73
2023/07/29 10:00:40;;;;;;;1999.90;999.90;;;;;;;26.80;57.54;100784.72;5054129;28;20027;-73
2023/07/29 10:03:06;;;;;;;1999.90;999.90;;;;;;;25.31;62.22;100780.81;5050542;28;20139;-72
2023/07/29 10:05:34;;;;;;;1999.90;999.90;;;;;;;25.28;62.44;100771.19;5053349;28;20067;-72
2023/07/29 10:08:00;;;;;;;1999.90;999.90;;;;;;;25.73;62.69;100791.97;5070734;28;20035;-73
2023/07/29 10:10:27;;;;;;;1999.90;999.90;;;;;;;26.14;59.33;100781.81;5050779;28;20547;-72
2023/07/29 10:12:54;;;;;;;1999.90;999.90;;;;;;;26.45;57.20;100784.78;5053423;28;20044;-73
2023/07/29 10:15:20;;;;;;;1999.90;999.90;;;;;;;26.48;56.96;100780.06;5071849;28;20028;-74
2023/07/29 10:17:46;;;;;;;1999.90;999.90;;;;;;;27.59;54.24;100784.63;5051691;28;20455;-74
2023/07/29 10:20:12;;;;;;;1999.90;999.90;;;;;;;26.20;55.56;100790.25;5052336;28;20120;-73
2023/07/29 10:22:43;;;;;;;1999.90;999.90;;;;;;;26.54;55.06;100795.69;5048907;28;20373;-72
2023/07/29 10:25:13;;;;;;;1999.90;999.90;;;;;;;25.80;58.90;100801.28;5043254;28;20036;-73
2023/07/29 10:28:05;;;;;;;1999.90;999.90;;;;;;;24.47;65.31;100813.38;5052176;28;20021;-74
2023/07/29 10:30:31;;;;;;;1999.90;999.90;;;;;;;25.63;61.68;100799.00;5052838;28;20024;-72
2023/07/29 10:32:59;;;;;;;1999.90;999.90;;;;;;;24.43;65.80;100806.53;5051057;28;20059;-72
2023/07/29 10:35:25;;;;;;;1999.90;999.90;;;;;;;24.78;66.51;100811.25;5040666;28;20375;-73
2023/07/29 10:37:53;;;;;;;1999.90;999.90;;;;;;;24.49;66.46;100803.41;5033837;28;20032;-74
2023/07/29 10:40:19;;;;;;;1999.90;999.90;;;;;;;26.11;61.33;100795.47;5051188;28;20028;-74
2023/07/29 10:43:37;;;;;;;1999.90;999.90;;;;;;;26.16;60.84;100799.50;5041347;28;20056;-75
2023/07/29 10:46:19;;;;;;;1999.90;999.90;;;;;;;25.47;63.09;100801.94;4938976;29;20158;-75